sensor_id;sensor_type;location;lat;lon;timestamp;temperature;humidity
67769;DHT22;54569;52.018;5.584;2022-11-28T00:01:19;7.70;91.60
67769;DHT22;54569;52.018;5.584;2022-11-28T00:03:45;7.80;91.60
67769;DHT22;54569;52.018;5.584;2022-11-28T00:06:11;7.80;91.60
67769;DHT22;54569;52.018;5.584;2022-11-28T00:08:36;7.80;91.50
67769;DHT22;54569;52.018;5.584;2022-11-28T00:11:07;7.80;91.50
67769;DHT22;54569;52.018;5.584;2022-11-28T00:13:33;7.80;91.50
67769;DHT22;54569;52.018;5.584;2022-11-28T00:16:00;7.80;91.40
67769;DHT22;54569;52.018;5.584;2022-11-28T00:18:27;7.90;91.30
67769;DHT22;54569;52.018;5.584;2022-11-28T00:21:02;7.90;91.30
67769;DHT22;54569;52.018;5.584;2022-11-28T00:23:28;7.90;91.30
67769;DHT22;54569;52.018;5.584;2022-11-28T00:26:25;7.90;91.30
67769;DHT22;54569;52.018;5.584;2022-11-28T00:28:51;7.90;91.60
67769;DHT22;54569;52.018;5.584;2022-11-28T00:31:24;7.90;91.20
67769;DHT22;54569;52.018;5.584;2022-11-28T00:33:50;7.90;91.40
67769;DHT22;54569;52.018;5.584;2022-11-28T00:36:16;8.00;91.20
67769;DHT22;54569;52.018;5.584;2022-11-28T00:38:42;7.90;91.20
67769;DHT22;54569;52.018;5.584;2022-11-28T00:41:11;7.90;91.10
67769;DHT22;54569;52.018;5.584;2022-11-28T00:43:39;8.00;91.30
67769;DHT22;54569;52.018;5.584;2022-11-28T00:46:05;8.00;91.30
67769;DHT22;54569;52.018;5.584;2022-11-28T00:48:32;8.00;91.30
67769;DHT22;54569;52.018;5.584;2022-11-28T00:53:35;8.00;91.50
67769;DHT22;54569;52.018;5.584;2022-11-28T00:56:03;8.00;91.50
67769;DHT22;54569;52.018;5.584;2022-11-28T00:58:31;8.00;91.60
67769;DHT22;54569;52.018;5.584;2022-11-28T01:00:57;8.00;91.60
67769;DHT22;54569;52.018;5.584;2022-11-28T01:03:23;8.00;91.60
67769;DHT22;54569;52.018;5.584;2022-11-28T01:05:48;8.00;91.70
67769;DHT22;54569;52.018;5.584;2022-11-28T01:08:14;8.00;92.00
67769;DHT22;54569;52.018;5.584;2022-11-28T01:10:41;7.90;92.00
67769;DHT22;54569;52.018;5.584;2022-11-28T01:13:09;7.90;92.20
67769;DHT22;54569;52.018;5.584;2022-11-28T01:15:35;7.90;92.10
67769;DHT22;54569;52.018;5.584;2022-11-28T01:18:01;7.90;92.20
67769;DHT22;54569;52.018;5.584;2022-11-28T01:20:27;7.90;92.50
67769;DHT22;54569;52.018;5.584;2022-11-28T01:22:53;7.90;92.60
67769;DHT22;54569;52.018;5.584;2022-11-28T01:25:19;7.90;92.60
67769;DHT22;54569;52.018;5.584;2022-11-28T01:27:45;7.90;92.90
67769;DHT22;54569;52.018;5.584;2022-11-28T01:30:11;7.90;92.70
67769;DHT22;54569;52.018;5.584;2022-11-28T01:32:37;7.90;92.70
67769;DHT22;54569;52.018;5.584;2022-11-28T01:35:03;7.90;92.80
67769;DHT22;54569;52.018;5.584;2022-11-28T01:37:29;7.90;93.00
67769;DHT22;54569;52.018;5.584;2022-11-28T01:39:55;7.90;93.30
67769;DHT22;54569;52.018;5.584;2022-11-28T01:42:21;7.90;93.10
67769;DHT22;54569;52.018;5.584;2022-11-28T01:47:14;8.00;93.00
67769;DHT22;54569;52.018;5.584;2022-11-28T01:49:42;8.00;93.10
67769;DHT22;54569;52.018;5.584;2022-11-28T01:52:12;8.00;93.20
67769;DHT22;54569;52.018;5.584;2022-11-28T01:54:41;8.00;93.20
67769;DHT22;54569;52.018;5.584;2022-11-28T01:57:12;8.10;93.10
67769;DHT22;54569;52.018;5.584;2022-11-28T01:59:56;8.10;93.10
67769;DHT22;54569;52.018;5.584;2022-11-28T02:02:32;8.10;93.10
67769;DHT22;54569;52.018;5.584;2022-11-28T02:04:59;8.20;93.20
67769;DHT22;54569;52.018;5.584;2022-11-28T02:07:25;8.20;93.00
67769;DHT22;54569;52.018;5.584;2022-11-28T02:09:51;8.30;93.00
67769;DHT22;54569;52.018;5.584;2022-11-28T02:17:51;8.40;93.00
67769;DHT22;54569;52.018;5.584;2022-11-28T02:23:43;8.50;93.10
67769;DHT22;54569;52.018;5.584;2022-11-28T02:31:35;8.50;92.90
67769;DHT22;54569;52.018;5.584;2022-11-28T02:34:10;8.50;92.70
67769;DHT22;54569;52.018;5.584;2022-11-28T02:36:49;8.60;92.90
67769;DHT22;54569;52.018;5.584;2022-11-28T02:42:05;8.60;92.40
67769;DHT22;54569;52.018;5.584;2022-11-28T02:44:51;8.60;92.50
67769;DHT22;54569;52.018;5.584;2022-11-28T02:47:47;8.60;92.40
67769;DHT22;54569;52.018;5.584;2022-11-28T02:50:19;8.70;92.80
67769;DHT22;54569;52.018;5.584;2022-11-28T02:53:00;8.70;92.40
67769;DHT22;54569;52.018;5.584;2022-11-28T02:55:26;8.70;92.40
67769;DHT22;54569;52.018;5.584;2022-11-28T02:57:54;8.70;92.20
67769;DHT22;54569;52.018;5.584;2022-11-28T03:00:25;8.70;92.30
67769;DHT22;54569;52.018;5.584;2022-11-28T03:16:29;8.70;92.50
67769;DHT22;54569;52.018;5.584;2022-11-28T03:19:13;8.60;92.60
67769;DHT22;54569;52.018;5.584;2022-11-28T03:22:29;8.60;92.70
67769;DHT22;54569;52.018;5.584;2022-11-28T03:24:56;8.60;92.70
67769;DHT22;54569;52.018;5.584;2022-11-28T03:27:33;8.60;92.80
67769;DHT22;54569;52.018;5.584;2022-11-28T03:30:15;8.60;93.00
67769;DHT22;54569;52.018;5.584;2022-11-28T03:32:43;8.60;92.80
67769;DHT22;54569;52.018;5.584;2022-11-28T03:35:15;8.60;92.80
67769;DHT22;54569;52.018;5.584;2022-11-28T03:37:51;8.60;92.90
67769;DHT22;54569;52.018;5.584;2022-11-28T03:40:24;8.50;93.00
67769;DHT22;54569;52.018;5.584;2022-11-28T03:43:02;8.50;93.10
67769;DHT22;54569;52.018;5.584;2022-11-28T03:45:33;8.50;93.00
67769;DHT22;54569;52.018;5.584;2022-11-28T03:48:24;8.50;93.10
67769;DHT22;54569;52.018;5.584;2022-11-28T03:51:11;8.50;93.50
67769;DHT22;54569;52.018;5.584;2022-11-28T03:53:47;8.50;93.20
67769;DHT22;54569;52.018;5.584;2022-11-28T03:56:24;8.40;93.30
67769;DHT22;54569;52.018;5.584;2022-11-28T03:59:01;8.50;93.50
67769;DHT22;54569;52.018;5.584;2022-11-28T04:09:19;8.40;93.70
67769;DHT22;54569;52.018;5.584;2022-11-28T04:11:55;8.40;93.60
67769;DHT22;54569;52.018;5.584;2022-11-28T04:14:33;8.40;93.70
67769;DHT22;54569;52.018;5.584;2022-11-28T04:17:23;8.40;93.60
67769;DHT22;54569;52.018;5.584;2022-11-28T04:19:54;8.40;93.60
67769;DHT22;54569;52.018;5.584;2022-11-28T04:22:40;8.40;93.60
67769;DHT22;54569;52.018;5.584;2022-11-28T04:25:11;8.40;93.70
67769;DHT22;54569;52.018;5.584;2022-11-28T04:27:42;8.40;93.60
67769;DHT22;54569;52.018;5.584;2022-11-28T04:30:09;8.30;93.60
67769;DHT22;54569;52.018;5.584;2022-11-28T04:32:38;8.40;93.60
67769;DHT22;54569;52.018;5.584;2022-11-28T04:35:11;8.40;93.60
67769;DHT22;54569;52.018;5.584;2022-11-28T04:37:39;8.40;93.80
67769;DHT22;54569;52.018;5.584;2022-11-28T04:40:09;8.40;93.70
67769;DHT22;54569;52.018;5.584;2022-11-28T04:42:47;8.40;93.70
67769;DHT22;54569;52.018;5.584;2022-11-28T04:45:18;8.40;93.80
67769;DHT22;54569;52.018;5.584;2022-11-28T04:47:47;8.40;94.00
67769;DHT22;54569;52.018;5.584;2022-11-28T04:50:13;8.40;93.90
67769;DHT22;54569;52.018;5.584;2022-11-28T04:53:01;8.40;93.80
67769;DHT22;54569;52.018;5.584;2022-11-28T05:00:38;8.40;93.90
67769;DHT22;54569;52.018;5.584;2022-11-28T05:03:05;8.30;93.70
67769;DHT22;54569;52.018;5.584;2022-11-28T05:05:44;8.40;93.70
67769;DHT22;54569;52.018;5.584;2022-11-28T05:08:10;8.30;94.00
67769;DHT22;54569;52.018;5.584;2022-11-28T05:10:36;8.30;93.90
67769;DHT22;54569;52.018;5.584;2022-11-28T05:13:02;8.30;94.10
67769;DHT22;54569;52.018;5.584;2022-11-28T05:15:28;8.30;93.90
67769;DHT22;54569;52.018;5.584;2022-11-28T05:17:53;8.40;94.00
67769;DHT22;54569;52.018;5.584;2022-11-28T05:20:19;8.40;93.90
67769;DHT22;54569;52.018;5.584;2022-11-28T05:22:44;8.40;93.90
67769;DHT22;54569;52.018;5.584;2022-11-28T05:25:10;8.40;93.90
67769;DHT22;54569;52.018;5.584;2022-11-28T05:27:36;8.40;94.00
67769;DHT22;54569;52.018;5.584;2022-11-28T05:30:02;8.40;94.00
67769;DHT22;54569;52.018;5.584;2022-11-28T05:32:29;8.40;94.00
67769;DHT22;54569;52.018;5.584;2022-11-28T05:34:55;8.40;94.00
67769;DHT22;54569;52.018;5.584;2022-11-28T05:37:21;8.40;94.30
67769;DHT22;54569;52.018;5.584;2022-11-28T05:39:47;8.40;94.10
67769;DHT22;54569;52.018;5.584;2022-11-28T05:42:12;8.40;94.10
67769;DHT22;54569;52.018;5.584;2022-11-28T05:44:38;8.40;94.20
67769;DHT22;54569;52.018;5.584;2022-11-28T05:47:04;8.40;94.20
67769;DHT22;54569;52.018;5.584;2022-11-28T05:49:29;8.40;94.10
67769;DHT22;54569;52.018;5.584;2022-11-28T05:51:55;8.40;94.00
67769;DHT22;54569;52.018;5.584;2022-11-28T05:54:21;8.40;94.10
67769;DHT22;54569;52.018;5.584;2022-11-28T05:56:46;8.40;94.10
67769;DHT22;54569;52.018;5.584;2022-11-28T05:59:12;8.40;94.00
67769;DHT22;54569;52.018;5.584;2022-11-28T06:01:38;8.40;94.00
67769;DHT22;54569;52.018;5.584;2022-11-28T06:04:04;8.50;94.00
67769;DHT22;54569;52.018;5.584;2022-11-28T06:06:31;8.40;94.10
67769;DHT22;54569;52.018;5.584;2022-11-28T06:08:58;8.50;94.10
67769;DHT22;54569;52.018;5.584;2022-11-28T06:11:25;8.50;94.10
67769;DHT22;54569;52.018;5.584;2022-11-28T06:13:52;8.50;94.10
67769;DHT22;54569;52.018;5.584;2022-11-28T06:16:20;8.50;94.10
67769;DHT22;54569;52.018;5.584;2022-11-28T06:18:46;8.50;94.10
67769;DHT22;54569;52.018;5.584;2022-11-28T06:21:13;8.50;94.10
67769;DHT22;54569;52.018;5.584;2022-11-28T06:23:39;8.50;94.10
67769;DHT22;54569;52.018;5.584;2022-11-28T06:26:10;8.50;94.10
67769;DHT22;54569;52.018;5.584;2022-11-28T06:28:37;8.50;94.20
67769;DHT22;54569;52.018;5.584;2022-11-28T06:31:03;8.50;94.30
67769;DHT22;54569;52.018;5.584;2022-11-28T06:33:28;8.50;94.20
67769;DHT22;54569;52.018;5.584;2022-11-28T06:36:02;8.50;94.20
67769;DHT22;54569;52.018;5.584;2022-11-28T06:38:28;8.50;94.30
67769;DHT22;54569;52.018;5.584;2022-11-28T06:40:59;8.50;94.30
67769;DHT22;54569;52.018;5.584;2022-11-28T06:43:25;8.50;94.30
67769;DHT22;54569;52.018;5.584;2022-11-28T06:45:51;8.50;94.30
67769;DHT22;54569;52.018;5.584;2022-11-28T06:48:17;8.50;94.30
67769;DHT22;54569;52.018;5.584;2022-11-28T06:50:43;8.50;94.20
67769;DHT22;54569;52.018;5.584;2022-11-28T06:53:09;8.50;94.20
67769;DHT22;54569;52.018;5.584;2022-11-28T06:55:34;8.50;94.30
67769;DHT22;54569;52.018;5.584;2022-11-28T06:58:00;8.50;94.30
67769;DHT22;54569;52.018;5.584;2022-11-28T07:00:25;8.50;94.40
67769;DHT22;54569;52.018;5.584;2022-11-28T07:02:51;8.50;94.20
67769;DHT22;54569;52.018;5.584;2022-11-28T07:05:17;8.50;94.40
67769;DHT22;54569;52.018;5.584;2022-11-28T07:07:43;8.50;94.40
67769;DHT22;54569;52.018;5.584;2022-11-28T07:10:10;8.50;94.40
67769;DHT22;54569;52.018;5.584;2022-11-28T07:12:35;8.50;94.40
67769;DHT22;54569;52.018;5.584;2022-11-28T07:15:01;8.50;94.50
67769;DHT22;54569;52.018;5.584;2022-11-28T07:17:27;8.50;94.40
67769;DHT22;54569;52.018;5.584;2022-11-28T07:19:52;8.50;94.30
67769;DHT22;54569;52.018;5.584;2022-11-28T07:22:18;8.50;94.30
67769;DHT22;54569;52.018;5.584;2022-11-28T07:24:44;8.60;94.30
67769;DHT22;54569;52.018;5.584;2022-11-28T07:27:10;8.60;94.30
67769;DHT22;54569;52.018;5.584;2022-11-28T07:29:36;8.60;94.30
67769;DHT22;54569;52.018;5.584;2022-11-28T07:32:03;8.60;94.30
67769;DHT22;54569;52.018;5.584;2022-11-28T07:34:30;8.60;94.30
67769;DHT22;54569;52.018;5.584;2022-11-28T07:36:56;8.60;94.30
67769;DHT22;54569;52.018;5.584;2022-11-28T07:39:22;8.60;94.30
67769;DHT22;54569;52.018;5.584;2022-11-28T07:41:47;8.60;94.30
67769;DHT22;54569;52.018;5.584;2022-11-28T07:44:13;8.60;94.30
67769;DHT22;54569;52.018;5.584;2022-11-28T07:46:42;8.70;94.30
67769;DHT22;54569;52.018;5.584;2022-11-28T07:49:08;8.60;94.30
67769;DHT22;54569;52.018;5.584;2022-11-28T07:51:34;8.70;94.30
67769;DHT22;54569;52.018;5.584;2022-11-28T07:54:01;8.70;94.20
67769;DHT22;54569;52.018;5.584;2022-11-28T07:56:29;8.70;94.30
67769;DHT22;54569;52.018;5.584;2022-11-28T07:58:55;8.70;94.30
67769;DHT22;54569;52.018;5.584;2022-11-28T08:01:23;8.70;94.30
67769;DHT22;54569;52.018;5.584;2022-11-28T08:03:50;8.70;94.30
67769;DHT22;54569;52.018;5.584;2022-11-28T08:06:18;8.70;94.60
67769;DHT22;54569;52.018;5.584;2022-11-28T08:08:44;8.70;94.30
67769;DHT22;54569;52.018;5.584;2022-11-28T08:11:12;8.70;94.30
67769;DHT22;54569;52.018;5.584;2022-11-28T08:13:38;8.70;94.40
67769;DHT22;54569;52.018;5.584;2022-11-28T08:16:06;8.70;94.40
67769;DHT22;54569;52.018;5.584;2022-11-28T08:18:33;8.70;94.40
67769;DHT22;54569;52.018;5.584;2022-11-28T08:21:13;8.70;94.40
67769;DHT22;54569;52.018;5.584;2022-11-28T08:23:40;8.70;94.40
67769;DHT22;54569;52.018;5.584;2022-11-28T08:26:08;8.70;94.50
67769;DHT22;54569;52.018;5.584;2022-11-28T08:28:35;8.70;94.50
67769;DHT22;54569;52.018;5.584;2022-11-28T08:31:11;8.70;94.50
67769;DHT22;54569;52.018;5.584;2022-11-28T08:33:37;8.70;94.50
67769;DHT22;54569;52.018;5.584;2022-11-28T08:36:05;8.70;94.40
67769;DHT22;54569;52.018;5.584;2022-11-28T08:38:31;8.70;94.50
67769;DHT22;54569;52.018;5.584;2022-11-28T08:41:05;8.70;94.40
67769;DHT22;54569;52.018;5.584;2022-11-28T08:43:32;8.70;94.50
67769;DHT22;54569;52.018;5.584;2022-11-28T08:45:59;8.70;95.10
67769;DHT22;54569;52.018;5.584;2022-11-28T08:48:25;8.70;94.60
67769;DHT22;54569;52.018;5.584;2022-11-28T08:50:50;8.70;94.50
67769;DHT22;54569;52.018;5.584;2022-11-28T08:53:16;8.70;94.50
67769;DHT22;54569;52.018;5.584;2022-11-28T08:55:42;8.70;94.60
67769;DHT22;54569;52.018;5.584;2022-11-28T08:58:10;8.80;94.60
67769;DHT22;54569;52.018;5.584;2022-11-28T09:00:36;8.80;94.60
67769;DHT22;54569;52.018;5.584;2022-11-28T09:03:01;8.80;94.60
67769;DHT22;54569;52.018;5.584;2022-11-28T09:05:28;8.80;94.60
67769;DHT22;54569;52.018;5.584;2022-11-28T09:07:54;8.80;94.60
67769;DHT22;54569;52.018;5.584;2022-11-28T09:10:20;8.80;94.50
67769;DHT22;54569;52.018;5.584;2022-11-28T09:12:46;8.80;94.50
67769;DHT22;54569;52.018;5.584;2022-11-28T09:15:12;8.90;94.50
67769;DHT22;54569;52.018;5.584;2022-11-28T09:17:38;8.80;94.60
67769;DHT22;54569;52.018;5.584;2022-11-28T09:20:05;8.90;94.60
67769;DHT22;54569;52.018;5.584;2022-11-28T09:22:31;8.90;94.60
67769;DHT22;54569;52.018;5.584;2022-11-28T09:24:56;8.90;94.50
67769;DHT22;54569;52.018;5.584;2022-11-28T09:27:22;8.90;94.50
67769;DHT22;54569;52.018;5.584;2022-11-28T09:29:48;8.90;94.50
67769;DHT22;54569;52.018;5.584;2022-11-28T09:32:13;8.90;94.50
67769;DHT22;54569;52.018;5.584;2022-11-28T09:34:39;8.90;94.50
67769;DHT22;54569;52.018;5.584;2022-11-28T09:37:05;9.00;94.50
67769;DHT22;54569;52.018;5.584;2022-11-28T09:39:30;8.90;94.50
67769;DHT22;54569;52.018;5.584;2022-11-28T09:42:12;9.00;94.60
67769;DHT22;54569;52.018;5.584;2022-11-28T09:47:25;9.00;94.60
67769;DHT22;54569;52.018;5.584;2022-11-28T09:49:56;9.00;94.60
67769;DHT22;54569;52.018;5.584;2022-11-28T09:52:58;9.00;94.60
67769;DHT22;54569;52.018;5.584;2022-11-28T09:58:15;9.10;94.60
67769;DHT22;54569;52.018;5.584;2022-11-28T10:01:05;9.10;94.60
67769;DHT22;54569;52.018;5.584;2022-11-28T10:06:21;9.20;94.60
67769;DHT22;54569;52.018;5.584;2022-11-28T10:11:54;9.20;94.60
67769;DHT22;54569;52.018;5.584;2022-11-28T10:19:49;9.20;94.50
67769;DHT22;54569;52.018;5.584;2022-11-28T10:22:19;9.20;94.60
67769;DHT22;54569;52.018;5.584;2022-11-28T10:25:19;9.30;94.50
67769;DHT22;54569;52.018;5.584;2022-11-28T10:27:48;9.30;94.70
67769;DHT22;54569;52.018;5.584;2022-11-28T10:32:46;9.30;94.50
67769;DHT22;54569;52.018;5.584;2022-11-28T10:35:30;9.30;94.60
67769;DHT22;54569;52.018;5.584;2022-11-28T10:37:57;9.30;94.60
67769;DHT22;54569;52.018;5.584;2022-11-28T10:52:11;9.30;94.60
67769;DHT22;54569;52.018;5.584;2022-11-28T10:57:35;9.30;94.80
67769;DHT22;54569;52.018;5.584;2022-11-28T11:02:45;9.40;95.00
67769;DHT22;54569;52.018;5.584;2022-11-28T11:05:20;9.40;94.80
67769;DHT22;54569;52.018;5.584;2022-11-28T11:07:51;9.40;94.70
67769;DHT22;54569;52.018;5.584;2022-11-28T11:10:22;9.40;94.70
67769;DHT22;54569;52.018;5.584;2022-11-28T11:12:51;9.50;94.60
67769;DHT22;54569;52.018;5.584;2022-11-28T11:15:31;9.50;94.60
67769;DHT22;54569;52.018;5.584;2022-11-28T11:18:20;9.50;94.60
67769;DHT22;54569;52.018;5.584;2022-11-28T11:20:46;9.60;94.70
67769;DHT22;54569;52.018;5.584;2022-11-28T11:23:16;9.60;94.50
67769;DHT22;54569;52.018;5.584;2022-11-28T11:25:54;9.60;94.50
67769;DHT22;54569;52.018;5.584;2022-11-28T11:28:44;9.60;94.60
67769;DHT22;54569;52.018;5.584;2022-11-28T11:31:17;9.70;94.60
67769;DHT22;54569;52.018;5.584;2022-11-28T11:33:43;9.70;94.50
67769;DHT22;54569;52.018;5.584;2022-11-28T11:36:26;9.70;94.40
67769;DHT22;54569;52.018;5.584;2022-11-28T11:39:09;9.80;94.50
67769;DHT22;54569;52.018;5.584;2022-11-28T11:42:08;9.70;94.50
67769;DHT22;54569;52.018;5.584;2022-11-28T11:44:35;9.70;94.50
67769;DHT22;54569;52.018;5.584;2022-11-28T11:47:07;9.70;94.60
67769;DHT22;54569;52.018;5.584;2022-11-28T11:52:16;9.80;94.60
67769;DHT22;54569;52.018;5.584;2022-11-28T11:57:38;9.80;94.50
67769;DHT22;54569;52.018;5.584;2022-11-28T12:02:54;9.80;94.50
67769;DHT22;54569;52.018;5.584;2022-11-28T12:05:28;9.90;94.60
67769;DHT22;54569;52.018;5.584;2022-11-28T12:07:57;9.90;94.50
67769;DHT22;54569;52.018;5.584;2022-11-28T12:10:26;9.90;94.40
67769;DHT22;54569;52.018;5.584;2022-11-28T12:12:52;10.00;94.40
67769;DHT22;54569;52.018;5.584;2022-11-28T12:24:12;10.00;94.50
67769;DHT22;54569;52.018;5.584;2022-11-28T12:26:32;10.00;94.50
67769;DHT22;54569;52.018;5.584;2022-11-28T12:40:17;10.10;94.50
67769;DHT22;54569;52.018;5.584;2022-11-28T12:43:05;10.10;94.50
67769;DHT22;54569;52.018;5.584;2022-11-28T12:48:22;10.10;94.50
67769;DHT22;54569;52.018;5.584;2022-11-28T12:51:14;10.10;94.50
67769;DHT22;54569;52.018;5.584;2022-11-28T12:54:06;10.10;94.60
67769;DHT22;54569;52.018;5.584;2022-11-28T13:13:24;10.20;94.70
67769;DHT22;54569;52.018;5.584;2022-11-28T13:15:54;10.20;94.70
67769;DHT22;54569;52.018;5.584;2022-11-28T13:18:35;10.20;94.90
67769;DHT22;54569;52.018;5.584;2022-11-28T13:24:03;10.20;94.80
67769;DHT22;54569;52.018;5.584;2022-11-28T13:32:34;10.30;94.80
67769;DHT22;54569;52.018;5.584;2022-11-28T13:35:03;10.30;94.80
67769;DHT22;54569;52.018;5.584;2022-11-28T13:37:52;10.30;94.80
67769;DHT22;54569;52.018;5.584;2022-11-28T13:40:27;10.30;94.90
67769;DHT22;54569;52.018;5.584;2022-11-28T13:43:24;10.30;94.80
67769;DHT22;54569;52.018;5.584;2022-11-28T13:45:47;10.30;94.80
67769;DHT22;54569;52.018;5.584;2022-11-28T13:53:40;10.30;94.90
67769;DHT22;54569;52.018;5.584;2022-11-28T14:01:42;10.30;94.90
67769;DHT22;54569;52.018;5.584;2022-11-28T14:04:13;10.30;95.00
67769;DHT22;54569;52.018;5.584;2022-11-28T14:07:00;10.30;94.90
67769;DHT22;54569;52.018;5.584;2022-11-28T14:27:58;10.30;95.10
67769;DHT22;54569;52.018;5.584;2022-11-28T14:30:41;10.30;95.10
67769;DHT22;54569;52.018;5.584;2022-11-28T14:33:30;10.40;95.10
67769;DHT22;54569;52.018;5.584;2022-11-28T14:36:01;10.30;95.10
67769;DHT22;54569;52.018;5.584;2022-11-28T14:41:02;10.40;95.10
67769;DHT22;54569;52.018;5.584;2022-11-28T14:43:40;10.40;95.10
67769;DHT22;54569;52.018;5.584;2022-11-28T14:46:19;10.30;95.10
67769;DHT22;54569;52.018;5.584;2022-11-28T14:54:33;10.40;95.20
67769;DHT22;54569;52.018;5.584;2022-11-28T14:57:01;10.40;95.20
67769;DHT22;54569;52.018;5.584;2022-11-28T14:59:32;10.40;95.20
67769;DHT22;54569;52.018;5.584;2022-11-28T15:02:23;10.40;95.20
67769;DHT22;54569;52.018;5.584;2022-11-28T15:05:21;10.40;95.30
67769;DHT22;54569;52.018;5.584;2022-11-28T15:10:42;10.40;95.30
67769;DHT22;54569;52.018;5.584;2022-11-28T15:15:51;10.40;95.30
67769;DHT22;54569;52.018;5.584;2022-11-28T15:18:18;10.40;95.30
67769;DHT22;54569;52.018;5.584;2022-11-28T15:20:58;10.40;95.30
67769;DHT22;54569;52.018;5.584;2022-11-28T15:23:33;10.40;95.30
67769;DHT22;54569;52.018;5.584;2022-11-28T15:26:01;10.40;95.30
67769;DHT22;54569;52.018;5.584;2022-11-28T15:28:29;10.40;95.30
67769;DHT22;54569;52.018;5.584;2022-11-28T15:31:02;10.40;95.30
67769;DHT22;54569;52.018;5.584;2022-11-28T15:33:29;10.40;95.30
67769;DHT22;54569;52.018;5.584;2022-11-28T15:36:14;10.40;95.30
67769;DHT22;54569;52.018;5.584;2022-11-28T15:38:42;10.40;95.30
67769;DHT22;54569;52.018;5.584;2022-11-28T15:41:08;10.40;95.30
67769;DHT22;54569;52.018;5.584;2022-11-28T15:43:37;10.40;95.30
67769;DHT22;54569;52.018;5.584;2022-11-28T15:46:03;10.40;95.30
67769;DHT22;54569;52.018;5.584;2022-11-28T15:48:46;10.40;95.30
67769;DHT22;54569;52.018;5.584;2022-11-28T15:51:28;10.40;95.40
67769;DHT22;54569;52.018;5.584;2022-11-28T15:53:54;10.40;95.40
67769;DHT22;54569;52.018;5.584;2022-11-28T15:56:21;10.30;95.30
67769;DHT22;54569;52.018;5.584;2022-11-28T15:58:47;10.30;95.30
67769;DHT22;54569;52.018;5.584;2022-11-28T16:06:17;10.30;95.40
67769;DHT22;54569;52.018;5.584;2022-11-28T16:08:55;10.30;95.40
67769;DHT22;54569;52.018;5.584;2022-11-28T16:11:23;10.30;95.40
67769;DHT22;54569;52.018;5.584;2022-11-28T16:13:50;10.30;95.40
67769;DHT22;54569;52.018;5.584;2022-11-28T16:16:20;10.30;95.40
67769;DHT22;54569;52.018;5.584;2022-11-28T16:19:01;10.30;95.40
67769;DHT22;54569;52.018;5.584;2022-11-28T16:21:35;10.30;95.30
67769;DHT22;54569;52.018;5.584;2022-11-28T16:24:02;10.30;95.30
67769;DHT22;54569;52.018;5.584;2022-11-28T16:26:40;10.30;95.40
67769;DHT22;54569;52.018;5.584;2022-11-28T16:31:32;10.30;95.40
67769;DHT22;54569;52.018;5.584;2022-11-28T16:33:58;10.30;95.40
67769;DHT22;54569;52.018;5.584;2022-11-28T16:36:31;10.30;95.30
67769;DHT22;54569;52.018;5.584;2022-11-28T16:41:38;10.30;95.30
67769;DHT22;54569;52.018;5.584;2022-11-28T16:44:09;10.30;95.30
67769;DHT22;54569;52.018;5.584;2022-11-28T16:46:38;10.40;95.30
67769;DHT22;54569;52.018;5.584;2022-11-28T16:49:05;10.30;95.40
67769;DHT22;54569;52.018;5.584;2022-11-28T16:51:37;10.30;95.40
67769;DHT22;54569;52.018;5.584;2022-11-28T16:54:39;10.40;95.40
67769;DHT22;54569;52.018;5.584;2022-11-28T16:57:12;10.40;95.40
67769;DHT22;54569;52.018;5.584;2022-11-28T16:59:42;10.30;95.40
67769;DHT22;54569;52.018;5.584;2022-11-28T17:02:22;10.30;95.40
67769;DHT22;54569;52.018;5.584;2022-11-28T17:04:50;10.30;95.40
67769;DHT22;54569;52.018;5.584;2022-11-28T17:07:18;10.30;95.40
67769;DHT22;54569;52.018;5.584;2022-11-28T17:09:45;10.30;95.30
67769;DHT22;54569;52.018;5.584;2022-11-28T17:12:30;10.40;95.40
67769;DHT22;54569;52.018;5.584;2022-11-28T17:15:04;10.40;95.40
67769;DHT22;54569;52.018;5.584;2022-11-28T17:17:31;10.40;95.40
67769;DHT22;54569;52.018;5.584;2022-11-28T17:19:57;10.30;95.40
67769;DHT22;54569;52.018;5.584;2022-11-28T17:22:25;10.40;95.40
67769;DHT22;54569;52.018;5.584;2022-11-28T17:24:59;10.40;95.40
67769;DHT22;54569;52.018;5.584;2022-11-28T17:27:26;10.40;95.40
67769;DHT22;54569;52.018;5.584;2022-11-28T17:29:51;10.40;95.40
67769;DHT22;54569;52.018;5.584;2022-11-28T17:32:17;10.40;95.40
67769;DHT22;54569;52.018;5.584;2022-11-28T17:34:43;10.40;95.40
67769;DHT22;54569;52.018;5.584;2022-11-28T17:37:10;10.40;95.40
67769;DHT22;54569;52.018;5.584;2022-11-28T17:39:36;10.40;95.40
67769;DHT22;54569;52.018;5.584;2022-11-28T17:42:03;10.30;95.40
67769;DHT22;54569;52.018;5.584;2022-11-28T17:46:57;10.40;95.50
67769;DHT22;54569;52.018;5.584;2022-11-28T17:49:23;10.30;95.50
67769;DHT22;54569;52.018;5.584;2022-11-28T17:51:49;10.30;95.50
67769;DHT22;54569;52.018;5.584;2022-11-28T17:54:18;10.40;95.50
67769;DHT22;54569;52.018;5.584;2022-11-28T17:56:46;10.30;95.50
67769;DHT22;54569;52.018;5.584;2022-11-28T17:59:13;10.30;95.50
67769;DHT22;54569;52.018;5.584;2022-11-28T18:01:40;10.30;95.50
67769;DHT22;54569;52.018;5.584;2022-11-28T18:04:06;10.30;95.60
67769;DHT22;54569;52.018;5.584;2022-11-28T18:06:32;10.30;95.50
67769;DHT22;54569;52.018;5.584;2022-11-28T18:08:58;10.30;95.60
67769;DHT22;54569;52.018;5.584;2022-11-28T18:11:26;10.30;95.60
67769;DHT22;54569;52.018;5.584;2022-11-28T18:13:52;10.30;95.60
67769;DHT22;54569;52.018;5.584;2022-11-28T18:16:20;10.30;95.50
67769;DHT22;54569;52.018;5.584;2022-11-28T18:18:47;10.30;95.50
67769;DHT22;54569;52.018;5.584;2022-11-28T18:21:14;10.30;95.60
67769;DHT22;54569;52.018;5.584;2022-11-28T18:23:44;10.30;95.60
67769;DHT22;54569;52.018;5.584;2022-11-28T18:26:13;10.30;95.60
67769;DHT22;54569;52.018;5.584;2022-11-28T18:28:40;10.30;95.70
67769;DHT22;54569;52.018;5.584;2022-11-28T18:31:16;10.30;95.70
67769;DHT22;54569;52.018;5.584;2022-11-28T18:33:43;10.30;95.70
67769;DHT22;54569;52.018;5.584;2022-11-28T18:36:24;10.20;95.70
67769;DHT22;54569;52.018;5.584;2022-11-28T18:38:58;10.20;95.70
67769;DHT22;54569;52.018;5.584;2022-11-28T18:41:25;10.20;95.80
67769;DHT22;54569;52.018;5.584;2022-11-28T18:43:58;10.10;95.80
67769;DHT22;54569;52.018;5.584;2022-11-28T18:46:25;10.10;95.90
67769;DHT22;54569;52.018;5.584;2022-11-28T18:48:51;10.00;95.90
67769;DHT22;54569;52.018;5.584;2022-11-28T18:51:20;10.00;96.00
67769;DHT22;54569;52.018;5.584;2022-11-28T18:53:47;10.00;96.00
67769;DHT22;54569;52.018;5.584;2022-11-28T18:56:14;9.90;96.10
67769;DHT22;54569;52.018;5.584;2022-11-28T18:58:43;9.90;96.10
67769;DHT22;54569;52.018;5.584;2022-11-28T19:03:40;9.90;96.20
67769;DHT22;54569;52.018;5.584;2022-11-28T19:06:10;9.80;96.20
67769;DHT22;54569;52.018;5.584;2022-11-28T19:08:38;9.80;96.20
67769;DHT22;54569;52.018;5.584;2022-11-28T19:11:05;9.80;96.30
67769;DHT22;54569;52.018;5.584;2022-11-28T19:13:40;9.80;96.30
67769;DHT22;54569;52.018;5.584;2022-11-28T19:16:07;9.70;96.30
67769;DHT22;54569;52.018;5.584;2022-11-28T19:18:37;9.70;96.30
67769;DHT22;54569;52.018;5.584;2022-11-28T19:21:11;9.70;96.40
67769;DHT22;54569;52.018;5.584;2022-11-28T19:23:38;9.60;96.40